sensor_id;sensor_type;location;lat;lon;timestamp;P1;durP1;ratioP1;P2;durP2;ratioP2
41043;SDS011;51680;49.806;18.774;2023-02-23T00:01:46;26.42;;;12.27;;
41043;SDS011;51680;49.806;18.774;2023-02-23T00:04:49;26.85;;;11.70;;
41043;SDS011;51680;49.806;18.774;2023-02-23T00:07:51;21.90;;;10.15;;
41043;SDS011;51680;49.806;18.774;2023-02-23T00:10:54;24.70;;;11.02;;
41043;SDS011;51680;49.806;18.774;2023-02-23T00:13:57;24.83;;;11.90;;
41043;SDS011;51680;49.806;18.774;2023-02-23T00:17:00;22.10;;;8.90;;
41043;SDS011;51680;49.806;18.774;2023-02-23T00:20:05;24.77;;;11.68;;
41043;SDS011;51680;49.806;18.774;2023-02-23T00:23:10;24.38;;;11.63;;
41043;SDS011;51680;49.806;18.774;2023-02-23T00:26:12;27.30;;;12.23;;
41043;SDS011;51680;49.806;18.774;2023-02-23T00:29:15;26.33;;;12.65;;
41043;SDS011;51680;49.806;18.774;2023-02-23T00:32:17;28.20;;;10.95;;
41043;SDS011;51680;49.806;18.774;2023-02-23T00:35:21;27.30;;;12.80;;
41043;SDS011;51680;49.806;18.774;2023-02-23T00:38:24;35.85;;;15.15;;
41043;SDS011;51680;49.806;18.774;2023-02-23T00:41:27;60.63;;;24.50;;
41043;SDS011;51680;49.806;18.774;2023-02-23T00:44:29;42.95;;;18.73;;
41043;SDS011;51680;49.806;18.774;2023-02-23T00:47:33;45.78;;;18.70;;
41043;SDS011;51680;49.806;18.774;2023-02-23T00:50:37;91.93;;;36.90;;
41043;SDS011;51680;49.806;18.774;2023-02-23T00:53:41;64.72;;;30.00;;
41043;SDS011;51680;49.806;18.774;2023-02-23T00:56:43;75.70;;;32.25;;
41043;SDS011;51680;49.806;18.774;2023-02-23T00:59:45;82.90;;;35.85;;
41043;SDS011;51680;49.806;18.774;2023-02-23T01:02:48;101.63;;;43.83;;
41043;SDS011;51680;49.806;18.774;2023-02-23T01:05:52;77.10;;;33.92;;
41043;SDS011;51680;49.806;18.774;2023-02-23T01:08:55;83.20;;;35.17;;
41043;SDS011;51680;49.806;18.774;2023-02-23T01:11:58;105.80;;;45.67;;
41043;SDS011;51680;49.806;18.774;2023-02-23T01:15:00;105.05;;;43.88;;
41043;SDS011;51680;49.806;18.774;2023-02-23T01:18:05;107.85;;;44.80;;
41043;SDS011;51680;49.806;18.774;2023-02-23T01:21:14;100.00;;;41.35;;
41043;SDS011;51680;49.806;18.774;2023-02-23T01:24:17;110.05;;;46.85;;
41043;SDS011;51680;49.806;18.774;2023-02-23T01:27:19;105.85;;;48.25;;
41043;SDS011;51680;49.806;18.774;2023-02-23T01:30:20;114.13;;;49.38;;
41043;SDS011;51680;49.806;18.774;2023-02-23T01:33:22;115.70;;;50.33;;
41043;SDS011;51680;49.806;18.774;2023-02-23T01:36:26;130.35;;;55.60;;
41043;SDS011;51680;49.806;18.774;2023-02-23T01:39:29;130.98;;;56.88;;
41043;SDS011;51680;49.806;18.774;2023-02-23T01:42:51;129.98;;;56.28;;
41043;SDS011;51680;49.806;18.774;2023-02-23T01:45:53;128.60;;;54.55;;
41043;SDS011;51680;49.806;18.774;2023-02-23T01:49:15;123.20;;;52.38;;
41043;SDS011;51680;49.806;18.774;2023-02-23T01:52:22;117.50;;;50.17;;
41043;SDS011;51680;49.806;18.774;2023-02-23T01:55:24;108.88;;;50.60;;
41043;SDS011;51680;49.806;18.774;2023-02-23T01:58:28;111.82;;;49.53;;
41043;SDS011;51680;49.806;18.774;2023-02-23T02:04:34;108.22;;;46.70;;
41043;SDS011;51680;49.806;18.774;2023-02-23T02:07:44;110.53;;;45.80;;
41043;SDS011;51680;49.806;18.774;2023-02-23T02:10:52;109.85;;;46.03;;
41043;SDS011;51680;49.806;18.774;2023-02-23T02:13:57;111.30;;;47.45;;
41043;SDS011;51680;49.806;18.774;2023-02-23T02:17:05;109.88;;;45.05;;
41043;SDS011;51680;49.806;18.774;2023-02-23T02:27:25;101.15;;;45.75;;
41043;SDS011;51680;49.806;18.774;2023-02-23T02:30:46;104.03;;;44.75;;
41043;SDS011;51680;49.806;18.774;2023-02-23T02:34:19;98.65;;;44.40;;
41043;SDS011;51680;49.806;18.774;2023-02-23T02:37:45;98.80;;;44.90;;
41043;SDS011;51680;49.806;18.774;2023-02-23T02:41:01;105.72;;;47.00;;
41043;SDS011;51680;49.806;18.774;2023-02-23T02:44:08;102.03;;;44.38;;
41043;SDS011;51680;49.806;18.774;2023-02-23T02:47:16;94.97;;;44.17;;
41043;SDS011;51680;49.806;18.774;2023-02-23T02:50:25;98.70;;;45.60;;
41043;SDS011;51680;49.806;18.774;2023-02-23T02:53:35;96.15;;;43.33;;
41043;SDS011;51680;49.806;18.774;2023-02-23T02:56:42;98.30;;;44.65;;
41043;SDS011;51680;49.806;18.774;2023-02-23T02:59:45;96.90;;;45.95;;
41043;SDS011;51680;49.806;18.774;2023-02-23T03:03:07;92.32;;;44.22;;
41043;SDS011;51680;49.806;18.774;2023-02-23T03:06:47;99.65;;;45.10;;
41043;SDS011;51680;49.806;18.774;2023-02-23T03:10:15;96.60;;;42.08;;
41043;SDS011;51680;49.806;18.774;2023-02-23T03:13:46;100.65;;;42.70;;
41043;SDS011;51680;49.806;18.774;2023-02-23T03:17:17;82.97;;;41.45;;
41043;SDS011;51680;49.806;18.774;2023-02-23T03:20:44;90.93;;;42.30;;
41043;SDS011;51680;49.806;18.774;2023-02-23T03:24:09;95.43;;;41.33;;
41043;SDS011;51680;49.806;18.774;2023-02-23T03:27:43;93.50;;;42.47;;
41043;SDS011;51680;49.806;18.774;2023-02-23T03:31:09;94.80;;;43.63;;
41043;SDS011;51680;49.806;18.774;2023-02-23T03:34:35;96.20;;;42.25;;
41043;SDS011;51680;49.806;18.774;2023-02-23T03:38:02;87.55;;;40.63;;
41043;SDS011;51680;49.806;18.774;2023-02-23T03:41:25;88.65;;;41.20;;
41043;SDS011;51680;49.806;18.774;2023-02-23T03:44:48;83.32;;;40.10;;
41043;SDS011;51680;49.806;18.774;2023-02-23T03:48:10;84.72;;;38.40;;
41043;SDS011;51680;49.806;18.774;2023-02-23T03:51:34;87.43;;;41.50;;
41043;SDS011;51680;49.806;18.774;2023-02-23T03:54:58;82.50;;;37.55;;
41043;SDS011;51680;49.806;18.774;2023-02-23T03:58:22;86.20;;;38.53;;
41043;SDS011;51680;49.806;18.774;2023-02-23T04:01:47;91.80;;;39.08;;
41043;SDS011;51680;49.806;18.774;2023-02-23T04:05:10;89.93;;;40.55;;
41043;SDS011;51680;49.806;18.774;2023-02-23T04:08:34;93.07;;;42.00;;
41043;SDS011;51680;49.806;18.774;2023-02-23T04:11:55;92.88;;;40.50;;
41043;SDS011;51680;49.806;18.774;2023-02-23T04:15:20;65.25;;;28.13;;
41043;SDS011;51680;49.806;18.774;2023-02-23T04:18:28;57.42;;;25.40;;
41043;SDS011;51680;49.806;18.774;2023-02-23T04:21:31;65.65;;;28.52;;
41043;SDS011;51680;49.806;18.774;2023-02-23T04:24:32;72.28;;;34.45;;
41043;SDS011;51680;49.806;18.774;2023-02-23T04:27:34;89.78;;;39.13;;
41043;SDS011;51680;49.806;18.774;2023-02-23T04:30:36;82.38;;;37.22;;
41043;SDS011;51680;49.806;18.774;2023-02-23T04:33:39;87.82;;;38.75;;
41043;SDS011;51680;49.806;18.774;2023-02-23T04:36:41;79.88;;;34.92;;
41043;SDS011;51680;49.806;18.774;2023-02-23T04:39:43;76.40;;;37.80;;
41043;SDS011;51680;49.806;18.774;2023-02-23T04:42:48;76.53;;;37.13;;
41043;SDS011;51680;49.806;18.774;2023-02-23T04:45:51;81.90;;;38.42;;
41043;SDS011;51680;49.806;18.774;2023-02-23T04:48:54;80.32;;;37.78;;
41043;SDS011;51680;49.806;18.774;2023-02-23T04:51:56;77.07;;;37.10;;
41043;SDS011;51680;49.806;18.774;2023-02-23T04:54:58;81.75;;;38.35;;
41043;SDS011;51680;49.806;18.774;2023-02-23T04:58:00;78.40;;;37.17;;
41043;SDS011;51680;49.806;18.774;2023-02-23T05:01:03;69.10;;;32.83;;
41043;SDS011;51680;49.806;18.774;2023-02-23T05:04:08;77.32;;;34.20;;
41043;SDS011;51680;49.806;18.774;2023-02-23T05:07:09;72.22;;;32.30;;
41043;SDS011;51680;49.806;18.774;2023-02-23T05:10:11;58.22;;;27.67;;
41043;SDS011;51680;49.806;18.774;2023-02-23T05:13:14;57.45;;;25.80;;
41043;SDS011;51680;49.806;18.774;2023-02-23T05:16:16;71.43;;;34.42;;
41043;SDS011;51680;49.806;18.774;2023-02-23T05:19:19;82.57;;;36.92;;
41043;SDS011;51680;49.806;18.774;2023-02-23T05:22:21;75.85;;;37.75;;
41043;SDS011;51680;49.806;18.774;2023-02-23T05:25:23;77.45;;;37.42;;
41043;SDS011;51680;49.806;18.774;2023-02-23T05:28:25;81.10;;;38.95;;
41043;SDS011;51680;49.806;18.774;2023-02-23T05:31:27;82.55;;;37.55;;
41043;SDS011;51680;49.806;18.774;2023-02-23T05:34:30;91.95;;;39.97;;
41043;SDS011;51680;49.806;18.774;2023-02-23T05:37:32;91.85;;;37.95;;
41043;SDS011;51680;49.806;18.774;2023-02-23T05:40:52;82.03;;;37.63;;
41043;SDS011;51680;49.806;18.774;2023-02-23T05:43:54;74.72;;;36.50;;
41043;SDS011;51680;49.806;18.774;2023-02-23T05:46:56;90.18;;;39.58;;
41043;SDS011;51680;49.806;18.774;2023-02-23T05:49:59;86.10;;;38.33;;
41043;SDS011;51680;49.806;18.774;2023-02-23T05:53:01;87.15;;;39.58;;
41043;SDS011;51680;49.806;18.774;2023-02-23T05:56:03;94.03;;;42.65;;
41043;SDS011;51680;49.806;18.774;2023-02-23T05:59:07;92.60;;;44.47;;
41043;SDS011;51680;49.806;18.774;2023-02-23T06:02:09;93.25;;;43.85;;
41043;SDS011;51680;49.806;18.774;2023-02-23T06:05:12;93.38;;;45.08;;
41043;SDS011;51680;49.806;18.774;2023-02-23T06:08:14;98.10;;;45.70;;
41043;SDS011;51680;49.806;18.774;2023-02-23T06:11:16;88.88;;;42.30;;
41043;SDS011;51680;49.806;18.774;2023-02-23T06:14:18;89.38;;;44.60;;
41043;SDS011;51680;49.806;18.774;2023-02-23T06:17:39;84.35;;;41.80;;
41043;SDS011;51680;49.806;18.774;2023-02-23T06:20:42;86.75;;;42.60;;
41043;SDS011;51680;49.806;18.774;2023-02-23T06:23:45;86.03;;;42.10;;
41043;SDS011;51680;49.806;18.774;2023-02-23T06:26:46;81.03;;;42.80;;
41043;SDS011;51680;49.806;18.774;2023-02-23T06:29:48;78.22;;;41.15;;
41043;SDS011;51680;49.806;18.774;2023-02-23T06:32:50;85.65;;;40.13;;
41043;SDS011;51680;49.806;18.774;2023-02-23T06:35:56;73.28;;;37.33;;
41043;SDS011;51680;49.806;18.774;2023-02-23T06:38:58;77.95;;;39.83;;
41043;SDS011;51680;49.806;18.774;2023-02-23T06:42:00;72.15;;;37.80;;
41043;SDS011;51680;49.806;18.774;2023-02-23T06:45:02;72.85;;;37.30;;
41043;SDS011;51680;49.806;18.774;2023-02-23T06:48:04;78.47;;;38.65;;
41043;SDS011;51680;49.806;18.774;2023-02-23T06:51:08;73.03;;;37.33;;
41043;SDS011;51680;49.806;18.774;2023-02-23T06:54:10;73.45;;;37.63;;
41043;SDS011;51680;49.806;18.774;2023-02-23T06:57:11;66.32;;;36.97;;
41043;SDS011;51680;49.806;18.774;2023-02-23T07:00:13;73.15;;;37.92;;
41043;SDS011;51680;49.806;18.774;2023-02-23T07:03:16;68.88;;;35.13;;
41043;SDS011;51680;49.806;18.774;2023-02-23T07:06:20;55.33;;;29.58;;
41043;SDS011;51680;49.806;18.774;2023-02-23T07:09:22;63.35;;;31.92;;
41043;SDS011;51680;49.806;18.774;2023-02-23T07:12:23;61.13;;;31.70;;
41043;SDS011;51680;49.806;18.774;2023-02-23T07:15:25;58.00;;;30.67;;
41043;SDS011;51680;49.806;18.774;2023-02-23T07:18:27;53.67;;;28.10;;
41043;SDS011;51680;49.806;18.774;2023-02-23T07:21:30;58.25;;;30.20;;
41043;SDS011;51680;49.806;18.774;2023-02-23T07:27:34;84.75;;;42.90;;
41043;SDS011;51680;49.806;18.774;2023-02-23T07:30:36;61.45;;;33.88;;
41043;SDS011;51680;49.806;18.774;2023-02-23T07:33:38;64.45;;;33.97;;
41043;SDS011;51680;49.806;18.774;2023-02-23T07:36:41;67.13;;;33.65;;
41043;SDS011;51680;49.806;18.774;2023-02-23T07:39:43;43.38;;;23.75;;
41043;SDS011;51680;49.806;18.774;2023-02-23T07:42:45;56.63;;;27.80;;
41043;SDS011;51680;49.806;18.774;2023-02-23T07:45:47;57.97;;;31.02;;
41043;SDS011;51680;49.806;18.774;2023-02-23T07:48:50;51.00;;;26.42;;
41043;SDS011;51680;49.806;18.774;2023-02-23T07:51:53;60.85;;;32.85;;
41043;SDS011;51680;49.806;18.774;2023-02-23T07:54:55;61.92;;;33.90;;
41043;SDS011;51680;49.806;18.774;2023-02-23T07:57:56;71.18;;;38.35;;
41043;SDS011;51680;49.806;18.774;2023-02-23T08:01:17;70.63;;;38.05;;
41043;SDS011;51680;49.806;18.774;2023-02-23T08:04:19;73.78;;;37.67;;
41043;SDS011;51680;49.806;18.774;2023-02-23T08:07:22;70.47;;;35.97;;
41043;SDS011;51680;49.806;18.774;2023-02-23T08:13:26;62.13;;;34.20;;
41043;SDS011;51680;49.806;18.774;2023-02-23T08:16:29;69.85;;;38.08;;
41043;SDS011;51680;49.806;18.774;2023-02-23T08:19:32;63.05;;;33.60;;
41043;SDS011;51680;49.806;18.774;2023-02-23T08:22:35;69.55;;;37.42;;
41043;SDS011;51680;49.806;18.774;2023-02-23T08:25:37;63.03;;;34.93;;
41043;SDS011;51680;49.806;18.774;2023-02-23T08:28:39;64.57;;;35.05;;
41043;SDS011;51680;49.806;18.774;2023-02-23T08:31:44;65.00;;;35.08;;
41043;SDS011;51680;49.806;18.774;2023-02-23T08:34:46;59.15;;;34.70;;
41043;SDS011;51680;49.806;18.774;2023-02-23T08:37:49;60.03;;;32.08;;
41043;SDS011;51680;49.806;18.774;2023-02-23T08:40:51;55.50;;;31.80;;
41043;SDS011;51680;49.806;18.774;2023-02-23T08:43:54;52.08;;;28.98;;
41043;SDS011;51680;49.806;18.774;2023-02-23T08:46:56;48.83;;;27.20;;
41043;SDS011;51680;49.806;18.774;2023-02-23T08:49:58;59.40;;;32.22;;
41043;SDS011;51680;49.806;18.774;2023-02-23T08:53:01;60.03;;;33.10;;
41043;SDS011;51680;49.806;18.774;2023-02-23T08:56:04;57.50;;;33.15;;
41043;SDS011;51680;49.806;18.774;2023-02-23T08:59:07;60.28;;;33.03;;
41043;SDS011;51680;49.806;18.774;2023-02-23T09:02:10;60.42;;;33.80;;
41043;SDS011;51680;49.806;18.774;2023-02-23T09:05:13;59.50;;;34.38;;
41043;SDS011;51680;49.806;18.774;2023-02-23T09:08:17;55.47;;;31.38;;
41043;SDS011;51680;49.806;18.774;2023-02-23T09:11:19;65.53;;;33.05;;
41043;SDS011;51680;49.806;18.774;2023-02-23T09:14:20;70.53;;;36.60;;
41043;SDS011;51680;49.806;18.774;2023-02-23T09:17:22;64.10;;;34.75;;
41043;SDS011;51680;49.806;18.774;2023-02-23T09:20:25;60.58;;;33.97;;
41043;SDS011;51680;49.806;18.774;2023-02-23T09:23:28;63.50;;;33.83;;
41043;SDS011;51680;49.806;18.774;2023-02-23T09:26:31;61.13;;;33.97;;
41043;SDS011;51680;49.806;18.774;2023-02-23T09:29:35;64.75;;;36.25;;
41043;SDS011;51680;49.806;18.774;2023-02-23T09:32:40;61.25;;;36.72;;
41043;SDS011;51680;49.806;18.774;2023-02-23T09:35:45;68.47;;;39.25;;
41043;SDS011;51680;49.806;18.774;2023-02-23T09:38:49;75.13;;;39.17;;
41043;SDS011;51680;49.806;18.774;2023-02-23T09:45:25;70.00;;;37.80;;
41043;SDS011;51680;49.806;18.774;2023-02-23T09:48:33;76.13;;;38.47;;
41043;SDS011;51680;49.806;18.774;2023-02-23T09:51:36;73.25;;;42.65;;
41043;SDS011;51680;49.806;18.774;2023-02-23T09:54:43;71.65;;;40.40;;
41043;SDS011;51680;49.806;18.774;2023-02-23T09:57:46;69.07;;;36.22;;
41043;SDS011;51680;49.806;18.774;2023-02-23T10:00:50;72.72;;;41.58;;
41043;SDS011;51680;49.806;18.774;2023-02-23T10:04:10;78.22;;;42.55;;
41043;SDS011;51680;49.806;18.774;2023-02-23T10:07:17;87.18;;;46.20;;
41043;SDS011;51680;49.806;18.774;2023-02-23T10:10:27;90.60;;;50.75;;
41043;SDS011;51680;49.806;18.774;2023-02-23T10:13:38;85.28;;;48.47;;
41043;SDS011;51680;49.806;18.774;2023-02-23T10:16:50;94.63;;;50.28;;
41043;SDS011;51680;49.806;18.774;2023-02-23T10:23:07;65.13;;;38.13;;
41043;SDS011;51680;49.806;18.774;2023-02-23T10:26:15;73.32;;;39.70;;
41043;SDS011;51680;49.806;18.774;2023-02-23T10:29:21;70.93;;;40.03;;
41043;SDS011;51680;49.806;18.774;2023-02-23T10:32:29;67.53;;;37.50;;
41043;SDS011;51680;49.806;18.774;2023-02-23T10:35:38;70.50;;;38.22;;
41043;SDS011;51680;49.806;18.774;2023-02-23T10:38:40;76.95;;;42.58;;
41043;SDS011;51680;49.806;18.774;2023-02-23T10:41:43;76.07;;;39.65;;
41043;SDS011;51680;49.806;18.774;2023-02-23T10:44:45;66.07;;;37.15;;
41043;SDS011;51680;49.806;18.774;2023-02-23T10:47:48;70.82;;;38.30;;
41043;SDS011;51680;49.806;18.774;2023-02-23T10:50:53;68.82;;;37.47;;
41043;SDS011;51680;49.806;18.774;2023-02-23T10:54:21;75.32;;;38.20;;
41043;SDS011;51680;49.806;18.774;2023-02-23T10:57:46;69.13;;;39.28;;
41043;SDS011;51680;49.806;18.774;2023-02-23T11:00:49;70.57;;;40.90;;
41043;SDS011;51680;49.806;18.774;2023-02-23T11:03:52;72.97;;;38.67;;
41043;SDS011;51680;49.806;18.774;2023-02-23T11:07:05;77.82;;;41.38;;
41043;SDS011;51680;49.806;18.774;2023-02-23T11:10:23;66.68;;;40.00;;
41043;SDS011;51680;49.806;18.774;2023-02-23T11:13:32;73.63;;;41.83;;
41043;SDS011;51680;49.806;18.774;2023-02-23T11:16:36;69.03;;;39.33;;
41043;SDS011;51680;49.806;18.774;2023-02-23T11:19:39;62.33;;;35.50;;
41043;SDS011;51680;49.806;18.774;2023-02-23T11:22:41;70.05;;;38.65;;
41043;SDS011;51680;49.806;18.774;2023-02-23T11:25:44;67.15;;;37.72;;
41043;SDS011;51680;49.806;18.774;2023-02-23T11:28:49;58.47;;;32.80;;
41043;SDS011;51680;49.806;18.774;2023-02-23T11:31:54;58.33;;;32.42;;
41043;SDS011;51680;49.806;18.774;2023-02-23T11:35:11;71.28;;;37.95;;
41043;SDS011;51680;49.806;18.774;2023-02-23T11:38:46;67.50;;;34.65;;
41043;SDS011;51680;49.806;18.774;2023-02-23T11:42:15;55.50;;;32.75;;
41043;SDS011;51680;49.806;18.774;2023-02-23T11:45:20;63.65;;;33.88;;
41043;SDS011;51680;49.806;18.774;2023-02-23T11:48:25;57.95;;;31.02;;
41043;SDS011;51680;49.806;18.774;2023-02-23T11:51:29;47.78;;;25.80;;
41043;SDS011;51680;49.806;18.774;2023-02-23T11:54:33;62.95;;;31.33;;
41043;SDS011;51680;49.806;18.774;2023-02-23T11:57:35;58.22;;;29.42;;
41043;SDS011;51680;49.806;18.774;2023-02-23T12:00:38;49.42;;;28.02;;
41043;SDS011;51680;49.806;18.774;2023-02-23T12:03:43;54.10;;;27.73;;
41043;SDS011;51680;49.806;18.774;2023-02-23T12:06:48;60.15;;;29.38;;
41043;SDS011;51680;49.806;18.774;2023-02-23T12:09:53;50.80;;;28.87;;
41043;SDS011;51680;49.806;18.774;2023-02-23T12:13:02;55.50;;;30.38;;
41043;SDS011;51680;49.806;18.774;2023-02-23T12:16:15;58.88;;;30.10;;
41043;SDS011;51680;49.806;18.774;2023-02-23T12:19:22;58.13;;;32.55;;
41043;SDS011;51680;49.806;18.774;2023-02-23T12:22:28;65.20;;;33.30;;
41043;SDS011;51680;49.806;18.774;2023-02-23T12:25:37;65.50;;;32.72;;
41043;SDS011;51680;49.806;18.774;2023-02-23T12:28:44;70.85;;;38.85;;
41043;SDS011;51680;49.806;18.774;2023-02-23T12:31:55;62.63;;;34.90;;
41043;SDS011;51680;49.806;18.774;2023-02-23T12:35:03;63.75;;;37.17;;
41043;SDS011;51680;49.806;18.774;2023-02-23T12:38:14;68.80;;;37.38;;
41043;SDS011;51680;49.806;18.774;2023-02-23T12:41:47;68.55;;;36.67;;
41043;SDS011;51680;49.806;18.774;2023-02-23T12:44:57;62.85;;;36.00;;
41043;SDS011;51680;49.806;18.774;2023-02-23T12:48:05;67.88;;;35.15;;
41043;SDS011;51680;49.806;18.774;2023-02-23T12:51:15;66.18;;;36.05;;
41043;SDS011;51680;49.806;18.774;2023-02-23T12:54:23;66.13;;;35.03;;
41043;SDS011;51680;49.806;18.774;2023-02-23T12:57:27;61.55;;;35.67;;
41043;SDS011;51680;49.806;18.774;2023-02-23T13:00:40;68.97;;;35.90;;
41043;SDS011;51680;49.806;18.774;2023-02-23T13:04:00;73.68;;;37.67;;
41043;SDS011;51680;49.806;18.774;2023-02-23T13:07:13;66.15;;;36.13;;
41043;SDS011;51680;49.806;18.774;2023-02-23T13:10:21;65.38;;;34.65;;
41043;SDS011;51680;49.806;18.774;2023-02-23T13:13:31;64.53;;;36.72;;
41043;SDS011;51680;49.806;18.774;2023-02-23T13:16:38;70.30;;;35.88;;
41043;SDS011;51680;49.806;18.774;2023-02-23T13:19:49;65.25;;;34.28;;
41043;SDS011;51680;49.806;18.774;2023-02-23T13:22:55;66.45;;;34.30;;
41043;SDS011;51680;49.806;18.774;2023-02-23T13:26:02;67.30;;;35.67;;
41043;SDS011;51680;49.806;18.774;2023-02-23T13:29:14;61.65;;;34.35;;
41043;SDS011;51680;49.806;18.774;2023-02-23T13:32:28;64.65;;;34.47;;
41043;SDS011;51680;49.806;18.774;2023-02-23T13:35:33;57.63;;;31.92;;
41043;SDS011;51680;49.806;18.774;2023-02-23T13:38:40;66.53;;;33.38;;
41043;SDS011;51680;49.806;18.774;2023-02-23T13:41:49;67.40;;;35.63;;
41043;SDS011;51680;49.806;18.774;2023-02-23T13:45:00;77.93;;;37.22;;
41043;SDS011;51680;49.806;18.774;2023-02-23T13:48:15;68.10;;;35.83;;
41043;SDS011;51680;49.806;18.774;2023-02-23T13:51:29;68.25;;;36.63;;
41043;SDS011;51680;49.806;18.774;2023-02-23T13:54:37;65.85;;;34.30;;
41043;SDS011;51680;49.806;18.774;2023-02-23T13:58:02;63.63;;;35.88;;
41043;SDS011;51680;49.806;18.774;2023-02-23T14:01:09;65.95;;;35.47;;
41043;SDS011;51680;49.806;18.774;2023-02-23T14:04:15;59.63;;;34.15;;
41043;SDS011;51680;49.806;18.774;2023-02-23T14:07:25;59.83;;;33.65;;
41043;SDS011;51680;49.806;18.774;2023-02-23T14:10:34;59.80;;;34.53;;
41043;SDS011;51680;49.806;18.774;2023-02-23T14:13:39;63.97;;;34.08;;
41043;SDS011;51680;49.806;18.774;2023-02-23T14:16:42;63.60;;;33.33;;
41043;SDS011;51680;49.806;18.774;2023-02-23T14:19:59;55.80;;;30.25;;
41043;SDS011;51680;49.806;18.774;2023-02-23T14:23:27;44.25;;;24.83;;
41043;SDS011;51680;49.806;18.774;2023-02-23T14:26:45;27.58;;;13.52;;
41043;SDS011;51680;49.806;18.774;2023-02-23T14:30:26;18.77;;;9.57;;
41043;SDS011;51680;49.806;18.774;2023-02-23T14:33:32;160.10;;;113.65;;
41043;SDS011;51680;49.806;18.774;2023-02-23T14:36:42;16.27;;;7.93;;
41043;SDS011;51680;49.806;18.774;2023-02-23T14:39:48;11.15;;;5.55;;
41043;SDS011;51680;49.806;18.774;2023-02-23T14:42:52;10.77;;;6.20;;
41043;SDS011;51680;49.806;18.774;2023-02-23T14:45:57;11.75;;;6.10;;
41043;SDS011;51680;49.806;18.774;2023-02-23T14:49:05;27.50;;;16.42;;
41043;SDS011;51680;49.806;18.774;2023-02-23T14:52:12;13.90;;;7.15;;
41043;SDS011;51680;49.806;18.774;2023-02-23T14:55:21;10.88;;;6.05;;
41043;SDS011;51680;49.806;18.774;2023-02-23T14:58:27;12.95;;;7.25;;
41043;SDS011;51680;49.806;18.774;2023-02-23T15:01:33;14.60;;;7.20;;
41043;SDS011;51680;49.806;18.774;2023-02-23T15:04:36;16.95;;;7.45;;
41043;SDS011;51680;49.806;18.774;2023-02-23T15:07:39;16.48;;;7.10;;
41043;SDS011;51680;49.806;18.774;2023-02-23T15:10:44;13.30;;;6.40;;
41043;SDS011;51680;49.806;18.774;2023-02-23T15:13:47;14.10;;;7.20;;
41043;SDS011;51680;49.806;18.774;2023-02-23T15:16:51;14.27;;;7.45;;
41043;SDS011;51680;49.806;18.774;2023-02-23T15:19:54;11.77;;;7.38;;
41043;SDS011;51680;49.806;18.774;2023-02-23T15:22:57;12.90;;;7.10;;
41043;SDS011;51680;49.806;18.774;2023-02-23T15:29:17;15.20;;;7.90;;
41043;SDS011;51680;49.806;18.774;2023-02-23T15:35:23;18.13;;;8.40;;
41043;SDS011;51680;49.806;18.774;2023-02-23T15:38:26;24.40;;;12.20;;
41043;SDS011;51680;49.806;18.774;2023-02-23T15:41:34;21.77;;;14.07;;
41043;SDS011;51680;49.806;18.774;2023-02-23T15:44:38;20.17;;;11.57;;
41043;SDS011;51680;49.806;18.774;2023-02-23T15:47:41;21.65;;;9.95;;
41043;SDS011;51680;49.806;18.774;2023-02-23T15:50:43;20.73;;;12.30;;
41043;SDS011;51680;49.806;18.774;2023-02-23T15:53:49;16.38;;;10.45;;
41043;SDS011;51680;49.806;18.774;2023-02-23T15:56:55;16.40;;;9.82;;
41043;SDS011;51680;49.806;18.774;2023-02-23T16:00:00;18.83;;;7.45;;
41043;SDS011;51680;49.806;18.774;2023-02-23T16:03:20;18.33;;;9.30;;
41043;SDS011;51680;49.806;18.774;2023-02-23T16:06:24;18.73;;;8.95;;
41043;SDS011;51680;49.806;18.774;2023-02-23T16:09:31;14.30;;;7.75;;
41043;SDS011;51680;49.806;18.774;2023-02-23T16:12:35;15.45;;;9.38;;
41043;SDS011;51680;49.806;18.774;2023-02-23T16:15:40;17.15;;;8.68;;
41043;SDS011;51680;49.806;18.774;2023-02-23T16:18:43;21.17;;;12.70;;
41043;SDS011;51680;49.806;18.774;2023-02-23T16:21:47;16.20;;;7.65;;
41043;SDS011;51680;49.806;18.774;2023-02-23T16:24:57;20.15;;;12.15;;
41043;SDS011;51680;49.806;18.774;2023-02-23T16:28:03;16.08;;;8.48;;
41043;SDS011;51680;49.806;18.774;2023-02-23T16:31:09;17.75;;;9.00;;
41043;SDS011;51680;49.806;18.774;2023-02-23T16:37:21;40.35;;;19.42;;
41043;SDS011;51680;49.806;18.774;2023-02-23T16:40:24;298.85;;;114.47;;
41043;SDS011;51680;49.806;18.774;2023-02-23T16:43:28;55.67;;;24.23;;
41043;SDS011;51680;49.806;18.774;2023-02-23T16:49:36;29.42;;;13.35;;
41043;SDS011;51680;49.806;18.774;2023-02-23T16:52:38;152.55;;;62.78;;
41043;SDS011;51680;49.806;18.774;2023-02-23T16:55:45;323.40;;;162.82;;
41043;SDS011;51680;49.806;18.774;2023-02-23T16:58:54;105.78;;;55.80;;
41043;SDS011;51680;49.806;18.774;2023-02-23T17:02:00;33.42;;;18.52;;
41043;SDS011;51680;49.806;18.774;2023-02-23T17:05:05;20.83;;;11.60;;
41043;SDS011;51680;49.806;18.774;2023-02-23T17:08:12;20.35;;;10.02;;
41043;SDS011;51680;49.806;18.774;2023-02-23T17:11:14;71.35;;;52.55;;
41043;SDS011;51680;49.806;18.774;2023-02-23T17:14:20;21.20;;;11.30;;
41043;SDS011;51680;49.806;18.774;2023-02-23T17:17:26;18.40;;;10.25;;
41043;SDS011;51680;49.806;18.774;2023-02-23T17:23:32;21.40;;;10.63;;
41043;SDS011;51680;49.806;18.774;2023-02-23T17:26:50;27.45;;;12.23;;
41043;SDS011;51680;49.806;18.774;2023-02-23T17:29:53;19.95;;;12.30;;
41043;SDS011;51680;49.806;18.774;2023-02-23T17:32:55;21.90;;;11.63;;
41043;SDS011;51680;49.806;18.774;2023-02-23T17:35:58;24.42;;;11.05;;
41043;SDS011;51680;49.806;18.774;2023-02-23T17:39:00;23.40;;;12.35;;
41043;SDS011;51680;49.806;18.774;2023-02-23T17:42:02;25.02;;;12.25;;
41043;SDS011;51680;49.806;18.774;2023-02-23T17:45:07;27.88;;;13.88;;
41043;SDS011;51680;49.806;18.774;2023-02-23T17:51:12;26.92;;;14.60;;
41043;SDS011;51680;49.806;18.774;2023-02-23T17:54:15;25.13;;;12.85;;
41043;SDS011;51680;49.806;18.774;2023-02-23T17:57:17;21.63;;;11.93;;
41043;SDS011;51680;49.806;18.774;2023-02-23T18:00:21;19.00;;;10.18;;
41043;SDS011;51680;49.806;18.774;2023-02-23T18:03:24;17.42;;;8.98;;
41043;SDS011;51680;49.806;18.774;2023-02-23T18:06:30;17.70;;;9.77;;
41043;SDS011;51680;49.806;18.774;2023-02-23T18:09:32;20.60;;;10.65;;
41043;SDS011;51680;49.806;18.774;2023-02-23T18:12:34;19.05;;;10.27;;
41043;SDS011;51680;49.806;18.774;2023-02-23T18:15:37;18.20;;;9.43;;
41043;SDS011;51680;49.806;18.774;2023-02-23T18:18:40;19.97;;;10.30;;
41043;SDS011;51680;49.806;18.774;2023-02-23T18:21:44;16.40;;;9.27;;
41043;SDS011;51680;49.806;18.774;2023-02-23T18:24:45;19.35;;;9.68;;
41043;SDS011;51680;49.806;18.774;2023-02-23T18:27:50;17.27;;;9.45;;
41043;SDS011;51680;49.806;18.774;2023-02-23T18:30:55;19.52;;;9.57;;
41043;SDS011;51680;49.806;18.774;2023-02-23T18:33:58;15.98;;;8.93;;
41043;SDS011;51680;49.806;18.774;2023-02-23T18:37:01;21.60;;;10.02;;
41043;SDS011;51680;49.806;18.774;2023-02-23T18:40:03;18.58;;;8.77;;